sensor_id;sensor_type;location;lat;lon;timestamp;pressure;altitude;pressure_sealevel;temperature;humidity
68807;BME280;55800;54.272;18.558;2023-05-11T00:02:27;101453.19;;;7.27;43.01
68807;BME280;55800;54.272;18.558;2023-05-11T00:04:56;101449.59;;;7.31;39.32
68807;BME280;55800;54.272;18.558;2023-05-11T00:07:25;101446.81;;;7.37;38.71
68807;BME280;55800;54.272;18.558;2023-05-11T00:09:54;101447.78;;;7.33;39.81
68807;BME280;55800;54.272;18.558;2023-05-11T00:12:24;101443.34;;;7.32;39.28
68807;BME280;55800;54.272;18.558;2023-05-11T00:14:53;101447.88;;;7.26;39.54
68807;BME280;55800;54.272;18.558;2023-05-11T00:17:22;101447.91;;;7.24;40.10
68807;BME280;55800;54.272;18.558;2023-05-11T00:19:51;101441.69;;;7.24;39.39
68807;BME280;55800;54.272;18.558;2023-05-11T00:22:20;101447.13;;;7.18;39.12
68807;BME280;55800;54.272;18.558;2023-05-11T00:24:49;101448.03;;;7.15;40.19
68807;BME280;55800;54.272;18.558;2023-05-11T00:27:18;101448.13;;;7.09;39.22
68807;BME280;55800;54.272;18.558;2023-05-11T00:29:51;101447.34;;;7.04;40.21
68807;BME280;55800;54.272;18.558;2023-05-11T00:32:20;101449.13;;;7.00;39.50
68807;BME280;55800;54.272;18.558;2023-05-11T00:34:49;101452.75;;;6.96;38.87
68807;BME280;55800;54.272;18.558;2023-05-11T00:37:18;101452.00;;;6.87;39.41
68807;BME280;55800;54.272;18.558;2023-05-11T00:39:47;101448.50;;;6.85;39.77
68807;BME280;55800;54.272;18.558;2023-05-11T00:42:16;101452.91;;;6.84;39.47
68807;BME280;55800;54.272;18.558;2023-05-11T00:44:45;101447.69;;;6.77;39.72
68807;BME280;55800;54.272;18.558;2023-05-11T00:47:16;101448.78;;;6.61;42.99
68807;BME280;55800;54.272;18.558;2023-05-11T00:49:45;101449.75;;;6.54;40.02
68807;BME280;55800;54.272;18.558;2023-05-11T00:52:14;101448.00;;;6.54;39.91
68807;BME280;55800;54.272;18.558;2023-05-11T00:54:43;101451.59;;;6.47;40.85
68807;BME280;55800;54.272;18.558;2023-05-11T00:57:14;101452.44;;;6.52;40.07
68807;BME280;55800;54.272;18.558;2023-05-11T00:59:43;101448.94;;;6.50;40.19
68807;BME280;55800;54.272;18.558;2023-05-11T01:02:12;101446.31;;;6.49;39.73
68807;BME280;55800;54.272;18.558;2023-05-11T01:04:42;101452.56;;;6.42;40.46
68807;BME280;55800;54.272;18.558;2023-05-11T01:07:12;101454.38;;;6.40;40.12
68807;BME280;55800;54.272;18.558;2023-05-11T01:09:48;101457.03;;;6.40;40.38
68807;BME280;55800;54.272;18.558;2023-05-11T01:12:24;101454.38;;;6.37;39.98
68807;BME280;55800;54.272;18.558;2023-05-11T01:14:59;101458.00;;;6.31;39.82
68807;BME280;55800;54.272;18.558;2023-05-11T01:17:33;101464.28;;;6.25;40.12
68807;BME280;55800;54.272;18.558;2023-05-11T01:20:07;101456.31;;;6.22;40.31
68807;BME280;55800;54.272;18.558;2023-05-11T01:22:43;101466.16;;;6.14;40.60
68807;BME280;55800;54.272;18.558;2023-05-11T01:25:18;101458.34;;;5.99;45.80
68807;BME280;55800;54.272;18.558;2023-05-11T01:28:06;101463.59;;;6.02;41.24
68807;BME280;55800;54.272;18.558;2023-05-11T01:30:40;101456.56;;;6.01;40.93
68807;BME280;55800;54.272;18.558;2023-05-11T01:33:11;101461.00;;;5.99;41.65
68807;BME280;55800;54.272;18.558;2023-05-11T01:35:45;101460.13;;;5.97;40.83
68807;BME280;55800;54.272;18.558;2023-05-11T01:38:16;101464.59;;;5.95;40.86
68807;BME280;55800;54.272;18.558;2023-05-11T01:40:53;101465.50;;;5.91;40.62
68807;BME280;55800;54.272;18.558;2023-05-11T01:43:23;101459.31;;;5.88;40.83
68807;BME280;55800;54.272;18.558;2023-05-11T01:45:54;101468.25;;;5.75;45.68
68807;BME280;55800;54.272;18.558;2023-05-11T01:48:27;101465.66;;;5.70;41.41
68807;BME280;55800;54.272;18.558;2023-05-11T01:50:58;101471.84;;;5.71;41.02
68807;BME280;55800;54.272;18.558;2023-05-11T01:53:29;101476.28;;;5.70;41.72
68807;BME280;55800;54.272;18.558;2023-05-11T01:55:59;101475.41;;;5.68;41.32
68807;BME280;55800;54.272;18.558;2023-05-11T01:58:29;101461.31;;;5.62;41.11
68807;BME280;55800;54.272;18.558;2023-05-11T02:01:00;101472.81;;;5.61;40.96
68807;BME280;55800;54.272;18.558;2023-05-11T02:03:31;101465.78;;;5.53;41.71
68807;BME280;55800;54.272;18.558;2023-05-11T02:06:01;101472.94;;;5.47;41.41
68807;BME280;55800;54.272;18.558;2023-05-11T02:08:31;101467.63;;;5.44;41.75
68807;BME280;55800;54.272;18.558;2023-05-11T02:11:02;101483.59;;;5.35;42.41
68807;BME280;55800;54.272;18.558;2023-05-11T02:13:32;101480.06;;;5.37;41.77
68807;BME280;55800;54.272;18.558;2023-05-11T02:16:05;101480.03;;;5.39;41.20
68807;BME280;55800;54.272;18.558;2023-05-11T02:18:34;101489.78;;;5.35;41.84
68807;BME280;55800;54.272;18.558;2023-05-11T02:21:05;101490.75;;;5.27;42.41
68807;BME280;55800;54.272;18.558;2023-05-11T02:23:36;101482.81;;;5.25;41.70
68807;BME280;55800;54.272;18.558;2023-05-11T02:26:06;101487.31;;;5.13;46.23
68807;BME280;55800;54.272;18.558;2023-05-11T02:28:36;101493.47;;;5.16;42.45
68807;BME280;55800;54.272;18.558;2023-05-11T02:31:20;101491.69;;;5.18;41.86
68807;BME280;55800;54.272;18.558;2023-05-11T02:33:54;101483.75;;;5.14;42.42
68807;BME280;55800;54.272;18.558;2023-05-11T02:36:24;101489.94;;;5.11;43.14
68807;BME280;55800;54.272;18.558;2023-05-11T02:38:57;101494.41;;;5.05;42.61
68807;BME280;55800;54.272;18.558;2023-05-11T02:41:30;101494.44;;;5.02;42.10
68807;BME280;55800;54.272;18.558;2023-05-11T02:44:00;101497.06;;;4.99;42.03
68807;BME280;55800;54.272;18.558;2023-05-11T02:46:34;101490.94;;;4.94;41.85
68807;BME280;55800;54.272;18.558;2023-05-11T02:49:06;101483.84;;;4.94;42.01
68807;BME280;55800;54.272;18.558;2023-05-11T02:51:35;101494.47;;;4.93;41.92
68807;BME280;55800;54.272;18.558;2023-05-11T02:54:06;101485.66;;;4.91;41.76
68807;BME280;55800;54.272;18.558;2023-05-11T02:56:40;101486.56;;;4.87;41.79
68807;BME280;55800;54.272;18.558;2023-05-11T02:59:10;101493.66;;;4.83;44.11
68807;BME280;55800;54.272;18.558;2023-05-11T03:01:41;101494.53;;;4.78;42.72
68807;BME280;55800;54.272;18.558;2023-05-11T03:04:11;101489.28;;;4.74;41.97
68807;BME280;55800;54.272;18.558;2023-05-11T03:06:41;101494.56;;;4.71;43.17
68807;BME280;55800;54.272;18.558;2023-05-11T03:09:10;101501.63;;;4.69;41.96
68807;BME280;55800;54.272;18.558;2023-05-11T03:11:44;101499.88;;;4.62;43.74
68807;BME280;55800;54.272;18.558;2023-05-11T03:14:14;101500.78;;;4.63;43.82
68807;BME280;55800;54.272;18.558;2023-05-11T03:16:45;101499.88;;;4.62;45.87
68807;BME280;55800;54.272;18.558;2023-05-11T03:19:16;101499.03;;;4.63;46.24
68807;BME280;55800;54.272;18.558;2023-05-11T03:21:45;101499.91;;;4.64;42.79
68807;BME280;55800;54.272;18.558;2023-05-11T03:24:15;101494.63;;;4.56;46.99
68807;BME280;55800;54.272;18.558;2023-05-11T03:26:45;101500.81;;;4.55;43.96
68807;BME280;55800;54.272;18.558;2023-05-11T03:29:14;101503.47;;;4.55;43.72
68807;BME280;55800;54.272;18.558;2023-05-11T03:31:46;101497.28;;;4.55;44.24
68807;BME280;55800;54.272;18.558;2023-05-11T03:34:19;101508.78;;;4.49;44.98
68807;BME280;55800;54.272;18.558;2023-05-11T03:36:52;101511.41;;;4.60;46.87
68807;BME280;55800;54.272;18.558;2023-05-11T03:39:22;101513.97;;;4.81;49.46
68807;BME280;55800;54.272;18.558;2023-05-11T03:41:51;101513.88;;;4.95;47.16
68807;BME280;55800;54.272;18.558;2023-05-11T03:44:21;101511.19;;;5.04;46.89
68807;BME280;55800;54.272;18.558;2023-05-11T03:46:52;101508.56;;;5.04;50.57
68807;BME280;55800;54.272;18.558;2023-05-11T03:49:22;101514.69;;;5.07;48.19
68807;BME280;55800;54.272;18.558;2023-05-11T03:51:52;101519.09;;;5.13;50.14
68807;BME280;55800;54.272;18.558;2023-05-11T03:54:21;101519.94;;;5.18;49.07
68807;BME280;55800;54.272;18.558;2023-05-11T03:56:51;101519.03;;;5.28;49.95
68807;BME280;55800;54.272;18.558;2023-05-11T03:59:20;101519.84;;;5.37;51.20
68807;BME280;55800;54.272;18.558;2023-05-11T04:01:51;101518.00;;;5.45;49.10
68807;BME280;55800;54.272;18.558;2023-05-11T04:04:26;101520.59;;;5.56;48.59
68807;BME280;55800;54.272;18.558;2023-05-11T04:06:57;101521.41;;;5.66;48.74
68807;BME280;55800;54.272;18.558;2023-05-11T04:09:26;101520.47;;;5.74;48.61
68807;BME280;55800;54.272;18.558;2023-05-11T04:11:56;101515.97;;;5.84;49.31
68807;BME280;55800;54.272;18.558;2023-05-11T04:14:25;101527.41;;;5.93;50.68
68807;BME280;55800;54.272;18.558;2023-05-11T04:16:55;101522.00;;;6.02;51.32
68807;BME280;55800;54.272;18.558;2023-05-11T04:19:26;101521.97;;;6.08;52.19
68807;BME280;55800;54.272;18.558;2023-05-11T04:21:55;101523.66;;;6.15;52.40
68807;BME280;55800;54.272;18.558;2023-05-11T04:24:24;101521.78;;;6.26;52.62
68807;BME280;55800;54.272;18.558;2023-05-11T04:26:56;101524.34;;;6.34;51.56
68807;BME280;55800;54.272;18.558;2023-05-11T04:29:25;101530.47;;;6.44;51.51
68807;BME280;55800;54.272;18.558;2023-05-11T04:31:56;101529.47;;;6.55;52.39
68807;BME280;55800;54.272;18.558;2023-05-11T04:34:27;101529.34;;;6.64;52.20
68807;BME280;55800;54.272;18.558;2023-05-11T04:36:57;101530.06;;;6.77;51.67
68807;BME280;55800;54.272;18.558;2023-05-11T04:39:27;101537.06;;;6.87;50.28
68807;BME280;55800;54.272;18.558;2023-05-11T04:41:56;101537.78;;;6.99;48.45
68807;BME280;55800;54.272;18.558;2023-05-11T04:44:28;101542.06;;;7.11;47.26
68807;BME280;55800;54.272;18.558;2023-05-11T04:46:58;101546.34;;;7.23;46.63
68807;BME280;55800;54.272;18.558;2023-05-11T04:49:27;101531.13;;;7.32;47.62
68807;BME280;55800;54.272;18.558;2023-05-11T04:51:56;101526.53;;;7.43;46.11
68807;BME280;55800;54.272;18.558;2023-05-11T04:54:25;101535.25;;;7.54;45.68
68807;BME280;55800;54.272;18.558;2023-05-11T04:56:54;101535.97;;;7.65;45.36
68807;BME280;55800;54.272;18.558;2023-05-11T04:59:24;101534.00;;;7.76;45.11
68807;BME280;55800;54.272;18.558;2023-05-11T05:01:53;101549.78;;;7.88;44.90
68807;BME280;55800;54.272;18.558;2023-05-11T05:04:23;101547.81;;;8.00;44.93
68807;BME280;55800;54.272;18.558;2023-05-11T05:06:53;101541.44;;;8.10;44.76
68807;BME280;55800;54.272;18.558;2023-05-11T05:09:22;101551.00;;;8.23;44.50
68807;BME280;55800;54.272;18.558;2023-05-11T05:11:51;101553.50;;;8.33;44.38
68807;BME280;55800;54.272;18.558;2023-05-11T05:14:20;101548.81;;;8.46;44.61
68807;BME280;55800;54.272;18.558;2023-05-11T05:16:49;101550.41;;;8.56;44.43
68807;BME280;55800;54.272;18.558;2023-05-11T05:19:22;101562.50;;;8.72;45.89
68807;BME280;55800;54.272;18.558;2023-05-11T05:21:51;101556.13;;;8.82;44.85
68807;BME280;55800;54.272;18.558;2023-05-11T05:24:20;101557.66;;;8.94;44.50
68807;BME280;55800;54.272;18.558;2023-05-11T05:26:49;101550.34;;;9.03;44.37
68807;BME280;55800;54.272;18.558;2023-05-11T05:29:18;101561.63;;;9.16;44.36
68807;BME280;55800;54.272;18.558;2023-05-11T05:31:48;101559.59;;;9.28;44.22
68807;BME280;55800;54.272;18.558;2023-05-11T05:34:18;101559.28;;;9.42;46.61
68807;BME280;55800;54.272;18.558;2023-05-11T05:36:48;101561.56;;;9.59;46.75
68807;BME280;55800;54.272;18.558;2023-05-11T05:39:17;101560.31;;;9.75;46.28
68807;BME280;55800;54.272;18.558;2023-05-11T05:41:46;101561.78;;;9.88;45.86
68807;BME280;55800;54.272;18.558;2023-05-11T05:44:16;101565.91;;;10.01;46.45
68807;BME280;55800;54.272;18.558;2023-05-11T05:46:45;101568.31;;;10.13;45.00
68807;BME280;55800;54.272;18.558;2023-05-11T05:49:14;101571.50;;;10.27;46.20
68807;BME280;55800;54.272;18.558;2023-05-11T05:51:43;101570.16;;;10.45;46.07
68807;BME280;55800;54.272;18.558;2023-05-11T05:54:14;101575.09;;;10.60;46.77
68807;BME280;55800;54.272;18.558;2023-05-11T05:56:43;101576.47;;;10.74;46.70
68807;BME280;55800;54.272;18.558;2023-05-11T05:59:12;101573.38;;;10.89;45.84
68807;BME280;55800;54.272;18.558;2023-05-11T06:01:41;101586.34;;;11.03;46.83
68807;BME280;55800;54.272;18.558;2023-05-11T06:04:15;101577.06;;;11.16;46.27
68807;BME280;55800;54.272;18.558;2023-05-11T06:06:44;101573.88;;;11.33;46.38
68807;BME280;55800;54.272;18.558;2023-05-11T06:09:15;101582.28;;;11.50;46.04
68807;BME280;55800;54.272;18.558;2023-05-11T06:11:44;101581.00;;;11.63;45.85
68807;BME280;55800;54.272;18.558;2023-05-11T06:14:13;101580.56;;;11.78;45.36
68807;BME280;55800;54.272;18.558;2023-05-11T06:16:43;101580.13;;;11.92;45.09
68807;BME280;55800;54.272;18.558;2023-05-11T06:19:12;101578.84;;;12.03;45.41
68807;BME280;55800;54.272;18.558;2023-05-11T06:21:42;101591.59;;;12.23;45.32
68807;BME280;55800;54.272;18.558;2023-05-11T06:24:13;101584.91;;;12.36;45.34
68807;BME280;55800;54.272;18.558;2023-05-11T06:26:45;101582.66;;;12.48;44.46
68807;BME280;55800;54.272;18.558;2023-05-11T06:29:15;101589.38;;;12.62;44.58
68807;BME280;55800;54.272;18.558;2023-05-11T06:31:46;101588.81;;;12.77;44.48
68807;BME280;55800;54.272;18.558;2023-05-11T06:34:20;101591.09;;;12.87;44.35
68807;BME280;55800;54.272;18.558;2023-05-11T06:36:49;101593.22;;;13.04;44.14
68807;BME280;55800;54.272;18.558;2023-05-11T06:39:20;101587.41;;;13.16;44.07
68807;BME280;55800;54.272;18.558;2023-05-11T06:41:51;101587.91;;;13.27;44.27
68807;BME280;55800;54.272;18.558;2023-05-11T06:44:23;101590.84;;;13.43;43.82
68807;BME280;55800;54.272;18.558;2023-05-11T06:46:53;101589.44;;;13.56;43.68
68807;BME280;55800;54.272;18.558;2023-05-11T06:49:22;101585.28;;;13.70;43.30
68807;BME280;55800;54.272;18.558;2023-05-11T06:51:51;101590.19;;;13.82;43.42
68807;BME280;55800;54.272;18.558;2023-05-11T06:54:22;101584.31;;;13.94;43.66
68807;BME280;55800;54.272;18.558;2023-05-11T06:56:53;101590.06;;;14.07;43.41
68807;BME280;55800;54.272;18.558;2023-05-11T06:59:22;101591.34;;;14.20;43.13
68807;BME280;55800;54.272;18.558;2023-05-11T07:01:51;101585.47;;;14.32;42.99
68807;BME280;55800;54.272;18.558;2023-05-11T07:04:20;101592.09;;;14.45;43.12
68807;BME280;55800;54.272;18.558;2023-05-11T07:06:49;101588.81;;;14.59;42.89
68807;BME280;55800;54.272;18.558;2023-05-11T07:09:18;101595.47;;;14.70;42.77
68807;BME280;55800;54.272;18.558;2023-05-11T07:11:47;101595.00;;;14.81;42.53
68807;BME280;55800;54.272;18.558;2023-05-11T07:14:18;101597.22;;;14.92;42.45
68807;BME280;55800;54.272;18.558;2023-05-11T07:16:48;101595.88;;;15.02;42.37
68807;BME280;55800;54.272;18.558;2023-05-11T07:19:19;101591.84;;;15.12;42.49
68807;BME280;55800;54.272;18.558;2023-05-11T07:21:48;101598.47;;;15.23;42.44
68807;BME280;55800;54.272;18.558;2023-05-11T07:24:18;101599.78;;;15.33;42.39
68807;BME280;55800;54.272;18.558;2023-05-11T07:26:48;101597.53;;;15.44;42.26
68807;BME280;55800;54.272;18.558;2023-05-11T07:29:18;101596.97;;;15.56;42.03
68807;BME280;55800;54.272;18.558;2023-05-11T07:31:48;101588.38;;;15.67;41.75
68807;BME280;55800;54.272;18.558;2023-05-11T07:34:16;101585.16;;;15.78;41.64
68807;BME280;55800;54.272;18.558;2023-05-11T07:36:45;101592.66;;;15.90;41.65
68807;BME280;55800;54.272;18.558;2023-05-11T07:39:14;101589.53;;;15.99;41.64
68807;BME280;55800;54.272;18.558;2023-05-11T07:41:44;101594.53;;;16.06;41.56
68807;BME280;55800;54.272;18.558;2023-05-11T07:44:13;101590.50;;;16.15;41.50
68807;BME280;55800;54.272;18.558;2023-05-11T07:46:44;101594.44;;;16.26;41.30
68807;BME280;55800;54.272;18.558;2023-05-11T07:49:13;101583.94;;;16.37;40.63
68807;BME280;55800;54.272;18.558;2023-05-11T07:51:52;101585.16;;;16.49;39.07
68807;BME280;55800;54.272;18.558;2023-05-11T07:54:21;101583.88;;;16.58;39.81
68807;BME280;55800;54.272;18.558;2023-05-11T07:56:50;101584.34;;;16.66;39.78
68807;BME280;55800;54.272;18.558;2023-05-11T07:59:20;101580.19;;;16.76;39.55
68807;BME280;55800;54.272;18.558;2023-05-11T08:01:50;101592.03;;;16.90;39.23
68807;BME280;55800;54.272;18.558;2023-05-11T08:04:19;101577.34;;;16.96;39.12
68807;BME280;55800;54.272;18.558;2023-05-11T08:06:48;101573.03;;;17.09;38.19
68807;BME280;55800;54.272;18.558;2023-05-11T08:09:17;101576.19;;;17.17;37.82
68807;BME280;55800;54.272;18.558;2023-05-11T08:11:46;101578.41;;;17.26;38.36
68807;BME280;55800;54.272;18.558;2023-05-11T08:14:16;101576.06;;;17.36;38.14
68807;BME280;55800;54.272;18.558;2023-05-11T08:16:45;101574.59;;;17.46;37.44
68807;BME280;55800;54.272;18.558;2023-05-11T08:19:16;101576.03;;;17.53;37.58
68807;BME280;55800;54.272;18.558;2023-05-11T08:21:45;101576.31;;;17.64;36.27
68807;BME280;55800;54.272;18.558;2023-05-11T08:24:14;101573.28;;;17.70;36.37
68807;BME280;55800;54.272;18.558;2023-05-11T08:26:43;101575.63;;;17.76;35.69
68807;BME280;55800;54.272;18.558;2023-05-11T08:29:12;101573.28;;;17.85;36.08
68807;BME280;55800;54.272;18.558;2023-05-11T08:31:41;101582.88;;;17.91;35.68
68807;BME280;55800;54.272;18.558;2023-05-11T08:34:10;101570.75;;;17.98;35.88
68807;BME280;55800;54.272;18.558;2023-05-11T08:36:48;101573.09;;;18.04;35.40
68807;BME280;55800;54.272;18.558;2023-05-11T08:39:17;101579.88;;;18.11;35.66
68807;BME280;55800;54.272;18.558;2023-05-11T08:42:08;101572.22;;;18.19;35.81
68807;BME280;55800;54.272;18.558;2023-05-11T08:44:37;101575.50;;;18.24;34.63
68807;BME280;55800;54.272;18.558;2023-05-11T08:47:06;101578.84;;;18.29;35.13
68807;BME280;55800;54.272;18.558;2023-05-11T08:49:38;101575.84;;;18.34;34.92
68807;BME280;55800;54.272;18.558;2023-05-11T08:52:09;101567.38;;;18.40;34.64
68807;BME280;55800;54.272;18.558;2023-05-11T08:54:39;101568.03;;;18.43;34.95
68807;BME280;55800;54.272;18.558;2023-05-11T08:57:08;101574.09;;;18.48;34.37
68807;BME280;55800;54.272;18.558;2023-05-11T08:59:37;101584.47;;;18.56;33.40
68807;BME280;55800;54.272;18.558;2023-05-11T09:02:08;101575.13;;;18.61;34.28
68807;BME280;55800;54.272;18.558;2023-05-11T09:04:38;101565.94;;;18.64;32.74
68807;BME280;55800;54.272;18.558;2023-05-11T09:07:09;101576.69;;;18.65;32.24
68807;BME280;55800;54.272;18.558;2023-05-11T09:09:38;101568.47;;;18.67;31.94
68807;BME280;55800;54.272;18.558;2023-05-11T09:12:08;101568.34;;;18.68;32.03
68807;BME280;55800;54.272;18.558;2023-05-11T09:14:37;101568.97;;;18.74;31.28
68807;BME280;55800;54.272;18.558;2023-05-11T09:17:06;101568.09;;;18.73;30.80
68807;BME280;55800;54.272;18.558;2023-05-11T09:19:35;101566.16;;;18.75;30.78
68807;BME280;55800;54.272;18.558;2023-05-11T09:22:05;101571.50;;;18.77;30.71
68807;BME280;55800;54.272;18.558;2023-05-11T09:24:35;101573.63;;;18.86;30.98
68807;BME280;55800;54.272;18.558;2023-05-11T09:27:10;101579.25;;;18.97;31.81
68807;BME280;55800;54.272;18.558;2023-05-11T09:29:38;101568.81;;;19.05;32.08
68807;BME280;55800;54.272;18.558;2023-05-11T09:32:07;101571.13;;;19.11;32.03
68807;BME280;55800;54.272;18.558;2023-05-11T09:34:36;101572.63;;;19.16;31.05
68807;BME280;55800;54.272;18.558;2023-05-11T09:37:14;101565.38;;;19.17;31.29
68807;BME280;55800;54.272;18.558;2023-05-11T09:39:44;101564.38;;;19.18;30.68
68807;BME280;55800;54.272;18.558;2023-05-11T09:42:34;101570.09;;;19.13;30.70
68807;BME280;55800;54.272;18.558;2023-05-11T09:45:03;101571.34;;;19.22;31.16
68807;BME280;55800;54.272;18.558;2023-05-11T09:47:37;101562.44;;;19.20;29.98
68807;BME280;55800;54.272;18.558;2023-05-11T09:50:14;101558.78;;;19.21;30.25
68807;BME280;55800;54.272;18.558;2023-05-11T09:52:48;101560.50;;;19.22;30.71
68807;BME280;55800;54.272;18.558;2023-05-11T09:55:19;101562.81;;;19.28;31.22
68807;BME280;55800;54.272;18.558;2023-05-11T09:57:52;101556.88;;;19.37;30.60
68807;BME280;55800;54.272;18.558;2023-05-11T10:00:21;101558.41;;;19.41;31.13
68807;BME280;55800;54.272;18.558;2023-05-11T10:02:58;101548.16;;;19.46;30.46
68807;BME280;55800;54.272;18.558;2023-05-11T10:05:28;101551.63;;;19.48;30.58
68807;BME280;55800;54.272;18.558;2023-05-11T10:07:59;101553.94;;;19.54;30.13
68807;BME280;55800;54.272;18.558;2023-05-11T10:10:30;101552.78;;;19.58;30.58
68807;BME280;55800;54.272;18.558;2023-05-11T10:13:00;101545.41;;;19.60;30.67
68807;BME280;55800;54.272;18.558;2023-05-11T10:15:31;101542.50;;;19.63;29.45
68807;BME280;55800;54.272;18.558;2023-05-11T10:18:00;101540.56;;;19.65;29.95
68807;BME280;55800;54.272;18.558;2023-05-11T10:20:29;101540.16;;;19.71;29.30
68807;BME280;55800;54.272;18.558;2023-05-11T10:22:59;101540.47;;;19.67;29.84
68807;BME280;55800;54.272;18.558;2023-05-11T10:25:28;101539.88;;;19.76;30.27
68807;BME280;55800;54.272;18.558;2023-05-11T10:27:58;101544.00;;;19.81;30.29
68807;BME280;55800;54.272;18.558;2023-05-11T10:30:28;101540.72;;;19.90;30.62
68807;BME280;55800;54.272;18.558;2023-05-11T10:32:57;101540.28;;;19.96;30.16
68807;BME280;55800;54.272;18.558;2023-05-11T10:35:28;101544.66;;;19.99;29.75
68807;BME280;55800;54.272;18.558;2023-05-11T10:37:58;101532.25;;;19.95;28.83
68807;BME280;55800;54.272;18.558;2023-05-11T10:40:28;101524.00;;;19.96;28.95
68807;BME280;55800;54.272;18.558;2023-05-11T10:43:12;101540.09;;;19.99;28.98
68807;BME280;55800;54.272;18.558;2023-05-11T10:45:48;101536.31;;;20.02;29.16
68807;BME280;55800;54.272;18.558;2023-05-11T10:48:31;101535.03;;;20.07;28.86
68807;BME280;55800;54.272;18.558;2023-05-11T10:51:14;101521.03;;;20.13;29.27
68807;BME280;55800;54.272;18.558;2023-05-11T10:53:54;101525.28;;;20.17;28.64
68807;BME280;55800;54.272;18.558;2023-05-11T10:56:31;101535.28;;;20.17;29.25
68807;BME280;55800;54.272;18.558;2023-05-11T10:59:15;101535.75;;;20.23;28.75
68807;BME280;55800;54.272;18.558;2023-05-11T11:01:48;101535.34;;;20.30;29.05
68807;BME280;55800;54.272;18.558;2023-05-11T11:04:19;101532.56;;;20.31;29.40
68807;BME280;55800;54.272;18.558;2023-05-11T11:06:49;101525.81;;;20.37;30.18
68807;BME280;55800;54.272;18.558;2023-05-11T11:12:15;101530.41;;;20.49;29.21
68807;BME280;55800;54.272;18.558;2023-05-11T11:14:55;101523.88;;;20.51;29.68
68807;BME280;55800;54.272;18.558;2023-05-11T11:17:25;101524.16;;;20.61;29.51
68807;BME280;55800;54.272;18.558;2023-05-11T11:19:56;101525.69;;;20.65;28.99
68807;BME280;55800;54.272;18.558;2023-05-11T11:22:43;101524.69;;;20.66;27.81
68807;BME280;55800;54.272;18.558;2023-05-11T11:25:15;101516.75;;;20.63;27.77
68807;BME280;55800;54.272;18.558;2023-05-11T11:28:03;101526.31;;;20.56;28.68
68807;BME280;55800;54.272;18.558;2023-05-11T11:30:34;101531.63;;;20.70;28.89
68807;BME280;55800;54.272;18.558;2023-05-11T11:35:51;101533.84;;;20.77;28.65
68807;BME280;55800;54.272;18.558;2023-05-11T11:38:21;101534.59;;;20.79;28.06
68807;BME280;55800;54.272;18.558;2023-05-11T11:40:50;101531.88;;;20.79;28.43
68807;BME280;55800;54.272;18.558;2023-05-11T11:43:20;101527.09;;;20.83;28.70
68807;BME280;55800;54.272;18.558;2023-05-11T11:45:52;101536.13;;;20.96;29.09
68807;BME280;55800;54.272;18.558;2023-05-11T11:48:23;101526.78;;;21.00;28.42
68807;BME280;55800;54.272;18.558;2023-05-11T11:51:00;101531.94;;;21.05;28.80
68807;BME280;55800;54.272;18.558;2023-05-11T11:59:02;101532.91;;;21.16;28.54
68807;BME280;55800;54.272;18.558;2023-05-11T12:01:38;101529.75;;;21.22;28.28
68807;BME280;55800;54.272;18.558;2023-05-11T12:06:55;101528.09;;;21.32;28.11
68807;BME280;55800;54.272;18.558;2023-05-11T12:09:25;101533.75;;;21.29;28.36
68807;BME280;55800;54.272;18.558;2023-05-11T12:11:55;101520.59;;;21.36;28.19
68807;BME280;55800;54.272;18.558;2023-05-11T12:14:24;101519.03;;;21.44;27.99
68807;BME280;55800;54.272;18.558;2023-05-11T12:17:04;101528.97;;;21.45;27.30
68807;BME280;55800;54.272;18.558;2023-05-11T12:19:34;101531.69;;;21.45;27.69
68807;BME280;55800;54.272;18.558;2023-05-11T12:22:04;101529.59;;;21.49;27.97
68807;BME280;55800;54.272;18.558;2023-05-11T12:24:33;101530.28;;;21.52;26.84
68807;BME280;55800;54.272;18.558;2023-05-11T12:27:02;101533.75;;;21.54;27.36
68807;BME280;55800;54.272;18.558;2023-05-11T12:29:32;101525.78;;;21.51;27.23
68807;BME280;55800;54.272;18.558;2023-05-11T12:32:02;101536.34;;;21.56;27.32
68807;BME280;55800;54.272;18.558;2023-05-11T12:34:32;101531.09;;;21.65;27.55
68807;BME280;55800;54.272;18.558;2023-05-11T12:37:01;101535.09;;;21.72;27.91
68807;BME280;55800;54.272;18.558;2023-05-11T12:39:33;101528.03;;;21.70;27.34
68807;BME280;55800;54.272;18.558;2023-05-11T12:42:04;101532.38;;;21.72;27.20
68807;BME280;55800;54.272;18.558;2023-05-11T12:44:32;101521.03;;;21.78;26.80
68807;BME280;55800;54.272;18.558;2023-05-11T12:47:02;101536.28;;;21.81;27.27
68807;BME280;55800;54.272;18.558;2023-05-11T12:49:32;101518.19;;;21.80;26.40
68807;BME280;55800;54.272;18.558;2023-05-11T12:52:03;101514.06;;;21.74;26.07
68807;BME280;55800;54.272;18.558;2023-05-11T12:54:35;101521.59;;;21.84;27.03
68807;BME280;55800;54.272;18.558;2023-05-11T12:57:06;101518.41;;;21.90;27.07
68807;BME280;55800;54.272;18.558;2023-05-11T12:59:36;101514.72;;;21.91;27.02
68807;BME280;55800;54.272;18.558;2023-05-11T13:02:10;101513.59;;;21.93;26.47
68807;BME280;55800;54.272;18.558;2023-05-11T13:04:41;101509.91;;;21.94;25.97
68807;BME280;55800;54.272;18.558;2023-05-11T13:07:11;101520.34;;;22.00;26.75
68807;BME280;55800;54.272;18.558;2023-05-11T13:09:40;101507.59;;;22.01;26.88
68807;BME280;55800;54.272;18.558;2023-05-11T13:12:13;101517.03;;;22.08;26.50
68807;BME280;55800;54.272;18.558;2023-05-11T13:14:44;101513.22;;;22.10;26.29
68807;BME280;55800;54.272;18.558;2023-05-11T13:17:14;101508.34;;;22.03;25.54
68807;BME280;55800;54.272;18.558;2023-05-11T13:19:58;101503.94;;;22.13;26.90